createdAt,value
2022-08-10T00:00:59.891Z,14.60
2022-08-10T00:03:01.738Z,14.79
2022-08-10T00:05:04.069Z,14.93
2022-08-10T00:07:05.805Z,14.94
2022-08-10T00:09:07.662Z,14.67
2022-08-10T00:11:15.407Z,14.60
2022-08-10T00:13:18.718Z,14.58
2022-08-10T00:15:44.371Z,14.23
2022-08-10T00:17:44.927Z,14.20
2022-08-10T00:20:02.372Z,14.25
2022-08-10T00:22:06.337Z,14.18
2022-08-10T00:24:08.397Z,14.08
2022-08-10T00:26:10.293Z,13.97
2022-08-10T00:28:12.289Z,13.90
2022-08-10T00:30:14.340Z,13.86
2022-08-10T00:32:16.236Z,13.74
2022-08-10T00:34:18.210Z,13.70
2022-08-10T00:36:20.110Z,13.85
2022-08-10T00:38:22.637Z,13.84
2022-08-10T00:40:37.067Z,13.82
2022-08-10T00:42:40.291Z,13.73
2022-08-10T00:44:45.347Z,13.60
2022-08-10T00:46:47.109Z,13.67
2022-08-10T00:49:00.154Z,13.64
2022-08-10T00:51:02.613Z,13.73
2022-08-10T00:53:04.799Z,13.71
2022-08-10T00:55:07.144Z,13.73
2022-08-10T00:57:18.095Z,13.60
2022-08-10T00:59:20.698Z,13.31
2022-08-10T01:02:08.406Z,13.47
2022-08-10T01:04:58.234Z,13.40
2022-08-10T01:06:49.109Z,13.44
2022-08-10T01:09:14.701Z,13.41
2022-08-10T01:12:38.188Z,13.29
2022-08-10T01:13:53.119Z,13.18
2022-08-10T01:16:19.838Z,13.18
2022-08-10T01:18:33.680Z,13.20
2022-08-10T01:20:43.844Z,13.17
2022-08-10T01:23:14.568Z,13.17
2022-08-10T01:26:12.329Z,13.13
2022-08-10T01:28:34.215Z,13.08
2022-08-10T01:30:37.555Z,13.02
2022-08-10T01:33:05.436Z,12.97
2022-08-10T01:35:44.011Z,13.00
2022-08-10T01:37:52.625Z,12.94
2022-08-10T01:39:58.968Z,12.85
2022-08-10T01:42:03.269Z,12.95
2022-08-10T01:44:14.424Z,12.98
2022-08-10T01:46:19.403Z,12.94
2022-08-10T01:48:34.381Z,12.90
2022-08-10T01:50:59.488Z,12.95
2022-08-10T01:53:13.990Z,12.90
2022-08-10T01:55:17.134Z,12.74
2022-08-10T01:57:20.929Z,12.66
2022-08-10T01:59:31.655Z,12.68
2022-08-10T02:01:43.730Z,12.73
2022-08-10T02:04:03.862Z,12.49
2022-08-10T02:06:09.168Z,12.53
2022-08-10T02:08:16.435Z,12.46
2022-08-10T02:10:19.187Z,12.44
2022-08-10T02:12:24.838Z,12.63
2022-08-10T02:14:32.907Z,12.57
2022-08-10T02:16:38.707Z,12.62
2022-08-10T02:18:43.122Z,12.62
2022-08-10T02:20:48.044Z,12.64
2022-08-10T02:22:55.266Z,12.57
2022-08-10T02:24:58.675Z,12.63
2022-08-10T02:27:01.777Z,12.61
2022-08-10T02:29:06.187Z,12.54
2022-08-10T02:31:14.520Z,12.55
2022-08-10T02:33:19.115Z,12.45
2022-08-10T02:35:22.362Z,12.31
2022-08-10T02:37:28.223Z,12.24
2022-08-10T02:39:31.913Z,12.40
2022-08-10T02:45:02.455Z,12.38
2022-08-10T02:45:21.967Z,12.35
2022-08-10T02:46:58.829Z,12.37
2022-08-10T02:49:05.525Z,12.41
2022-08-10T02:52:06.559Z,12.42
2022-08-10T02:53:57.097Z,12.42
2022-08-10T02:56:20.269Z,12.43
2022-08-10T02:58:38.019Z,12.15
2022-08-10T03:00:45.273Z,12.51
2022-08-10T03:02:50.585Z,12.50
2022-08-10T03:04:58.139Z,12.42
2022-08-10T03:07:08.121Z,12.39
2022-08-10T03:09:15.086Z,12.38
2022-08-10T03:12:35.559Z,12.38
2022-08-10T03:13:49.906Z,12.47
2022-08-10T03:16:03.715Z,12.35
2022-08-10T03:18:07.177Z,12.35
2022-08-10T03:20:37.992Z,12.30
2022-08-10T03:22:32.867Z,12.34
2022-08-10T03:24:35.545Z,12.39
2022-08-10T03:26:38.330Z,12.43
2022-08-10T03:28:40.860Z,12.34
2022-08-10T03:30:43.938Z,12.18
2022-08-10T03:32:46.904Z,12.29
2022-08-10T03:34:49.088Z,12.18
2022-08-10T03:36:51.759Z,12.29
2022-08-10T03:38:54.169Z,12.20
2022-08-10T03:40:59.118Z,12.12
2022-08-10T03:43:03.550Z,12.19
2022-08-10T03:45:06.807Z,12.32
2022-08-10T03:47:15.995Z,12.33
2022-08-10T03:49:20.111Z,12.31
2022-08-10T03:51:23.288Z,12.27
2022-08-10T03:54:06.043Z,12.33
2022-08-10T03:56:30.183Z,12.33
2022-08-10T03:58:11.325Z,12.35
2022-08-10T04:00:13.538Z,12.43
2022-08-10T04:02:46.823Z,12.42
2022-08-10T04:04:38.370Z,12.46
2022-08-10T04:06:40.270Z,12.47
2022-08-10T04:08:42.905Z,12.61
2022-08-10T04:10:44.731Z,12.55
2022-08-10T04:12:46.479Z,12.66
2022-08-10T04:14:51.537Z,12.70
2022-08-10T04:16:54.506Z,12.82
2022-08-10T04:18:56.261Z,12.94
2022-08-10T04:21:04.563Z,13.09
2022-08-10T04:23:29.173Z,13.01
2022-08-10T04:25:31.612Z,13.19
2022-08-10T04:27:33.403Z,13.36
2022-08-10T04:29:35.752Z,13.57
2022-08-10T04:31:39.803Z,13.74
2022-08-10T04:33:48.145Z,13.78
2022-08-10T04:35:51.727Z,13.79
2022-08-10T04:37:55.765Z,13.93
2022-08-10T04:39:57.951Z,14.02
2022-08-10T04:42:00.074Z,14.19
2022-08-10T04:44:01.970Z,14.58
2022-08-10T04:46:03.896Z,14.85
2022-08-10T04:48:41.308Z,15.27
2022-08-10T04:50:38.149Z,16.08
2022-08-10T04:52:40.245Z,17.17
2022-08-10T04:54:42.043Z,17.31
2022-08-10T04:56:43.803Z,17.23
2022-08-10T04:58:46.113Z,17.02
2022-08-10T05:00:48.164Z,17.06
2022-08-10T05:02:49.954Z,17.08
2022-08-10T05:04:51.675Z,17.28
2022-08-10T05:06:53.562Z,17.15
2022-08-10T05:08:55.344Z,17.20
2022-08-10T05:10:57.201Z,17.34
2022-08-10T05:12:59.122Z,17.69
2022-08-10T05:15:00.882Z,17.68
2022-08-10T05:17:02.619Z,17.88
2022-08-10T05:19:04.513Z,18.16
2022-08-10T05:21:06.458Z,18.25
2022-08-10T05:23:08.321Z,18.50
2022-08-10T05:25:17.378Z,18.54
2022-08-10T05:27:19.135Z,18.67
2022-08-10T05:29:20.857Z,18.78
2022-08-10T05:31:24.002Z,18.97
2022-08-10T05:33:26.391Z,19.13
2022-08-10T05:35:52.844Z,19.67
2022-08-10T05:38:12.629Z,19.71
2022-08-10T05:40:14.707Z,19.79
2022-08-10T05:42:16.671Z,19.93
2022-08-10T05:44:20.533Z,19.90
2022-08-10T05:46:22.301Z,19.80
2022-08-10T05:48:54.751Z,20.03
2022-08-10T05:50:46.050Z,20.27
2022-08-10T05:52:48.051Z,20.62
2022-08-10T05:54:50.763Z,20.75
2022-08-10T05:56:57.118Z,20.54
2022-08-10T05:58:59.941Z,21.03
2022-08-10T06:01:05.569Z,21.09
2022-08-10T06:03:08.840Z,20.68
2022-08-10T06:05:19.621Z,20.67
2022-08-10T06:07:22.155Z,20.77
2022-08-10T06:09:26.059Z,21.03
2022-08-10T06:12:26.179Z,21.42
2022-08-10T06:14:12.433Z,21.41
2022-08-10T06:16:17.232Z,21.00
2022-08-10T06:18:19.924Z,21.20
2022-08-10T06:20:21.809Z,21.70
2022-08-10T06:22:25.756Z,22.29
2022-08-10T06:24:33.445Z,23.17
2022-08-10T06:26:35.357Z,23.70
2022-08-10T06:28:43.960Z,24.09
2022-08-10T06:31:07.165Z,23.69
2022-08-10T06:33:10.351Z,24.30
2022-08-10T06:35:12.345Z,24.94
2022-08-10T06:37:17.337Z,25.14
2022-08-10T06:39:35.916Z,24.92
2022-08-10T06:41:59.810Z,25.34
2022-08-10T06:44:11.612Z,24.85
2022-08-10T06:46:17.333Z,25.19
2022-08-10T06:48:26.545Z,25.49
2022-08-10T06:50:56.211Z,25.57
2022-08-10T06:53:03.731Z,25.97
2022-08-10T06:55:10.374Z,25.22
2022-08-10T06:57:18.274Z,26.02
2022-08-10T06:59:25.724Z,26.02
2022-08-10T07:01:34.220Z,25.95
2022-08-10T07:03:43.088Z,26.24
2022-08-10T07:05:51.055Z,26.26
2022-08-10T07:07:57.147Z,25.67
2022-08-10T07:10:00.349Z,25.16
2022-08-10T07:12:07.719Z,25.27
2022-08-10T07:14:18.553Z,25.21
2022-08-10T07:16:22.298Z,25.86
2022-08-10T07:18:25.780Z,25.83
2022-08-10T07:20:29.811Z,26.12
2022-08-10T07:23:26.939Z,25.89
2022-08-10T07:24:58.394Z,26.17
2022-08-10T07:27:01.125Z,26.89
2022-08-10T07:29:04.812Z,27.05
2022-08-10T07:31:56.398Z,26.76
2022-08-10T07:33:29.447Z,26.87
2022-08-10T07:35:42.132Z,26.93
2022-08-10T07:37:47.501Z,26.47
2022-08-10T07:39:58.396Z,26.57
2022-08-10T07:42:08.333Z,26.01
2022-08-10T07:44:12.065Z,26.11
2022-08-10T07:46:16.237Z,26.14
2022-08-10T07:48:31.154Z,26.40
2022-08-10T07:50:36.105Z,26.50
2022-08-10T07:52:38.910Z,26.18
2022-08-10T07:54:47.939Z,26.23
2022-08-10T07:56:53.312Z,25.46
2022-08-10T07:59:09.399Z,25.27
2022-08-10T08:01:13.613Z,25.02
2022-08-10T08:03:22.864Z,25.04
2022-08-10T08:05:57.419Z,25.81
2022-08-10T08:07:50.340Z,25.92
2022-08-10T08:09:57.747Z,26.32
2022-08-10T08:12:02.923Z,25.77
2022-08-10T08:14:07.593Z,25.13
2022-08-10T08:16:17.621Z,24.56
2022-08-10T08:18:25.498Z,23.68
2022-08-10T08:20:29.014Z,23.51
2022-08-10T08:24:06.694Z,23.75
2022-08-10T08:24:56.833Z,23.26
2022-08-10T08:27:00.859Z,23.57
2022-08-10T08:29:04.312Z,24.03
2022-08-10T08:31:08.039Z,24.44
2022-08-10T08:33:10.372Z,24.68
2022-08-10T08:35:23.285Z,24.41
2022-08-10T08:38:31.279Z,24.70
2022-08-10T08:39:49.985Z,24.33
2022-08-10T08:42:09.817Z,24.11
2022-08-10T08:44:14.607Z,24.28
2022-08-10T08:46:31.478Z,24.42
2022-08-10T08:48:56.867Z,24.17
2022-08-10T08:52:09.696Z,24.13
2022-08-10T08:54:07.406Z,23.75
2022-08-10T08:56:22.024Z,23.76
2022-08-10T08:58:41.761Z,23.15
2022-08-10T09:00:58.260Z,23.68
2022-08-10T09:03:40.295Z,23.35
2022-08-10T09:06:16.187Z,23.98
2022-08-10T09:08:55.467Z,23.22
2022-08-10T09:11:19.254Z,23.20
2022-08-10T09:13:28.478Z,23.47
2022-08-10T09:15:51.337Z,23.20
2022-08-10T09:18:05.345Z,22.73
2022-08-10T09:20:30.021Z,23.37
2022-08-10T09:22:45.073Z,23.79
2022-08-10T09:24:59.411Z,24.10
2022-08-10T09:27:09.039Z,24.25
2022-08-10T09:29:15.709Z,24.45
2022-08-10T09:31:23.511Z,24.75
2022-08-10T09:36:26.381Z,25.16
2022-08-10T09:36:26.579Z,24.97
2022-08-10T09:38:38.094Z,24.68
2022-08-10T09:40:58.878Z,24.93
2022-08-10T09:43:25.926Z,24.35
2022-08-10T09:45:47.879Z,24.37
2022-08-10T09:48:11.134Z,23.16
2022-08-10T09:50:47.637Z,22.46
2022-08-10T09:53:27.734Z,22.48
2022-08-10T09:56:16.932Z,23.07
2022-08-10T09:58:40.773Z,23.87
2022-08-10T10:00:52.315Z,24.04
2022-08-10T10:03:23.983Z,23.84
2022-08-10T10:05:33.515Z,23.49
2022-08-10T10:07:39.894Z,23.55
2022-08-10T10:10:06.308Z,23.21
2022-08-10T10:12:09.906Z,23.56
2022-08-10T10:14:30.745Z,23.79
2022-08-10T10:16:54.810Z,23.92
2022-08-10T10:19:15.836Z,24.04
2022-08-10T10:21:55.798Z,23.97
2022-08-10T10:24:36.808Z,24.01
2022-08-10T10:26:47.864Z,24.09
2022-08-10T10:29:37.498Z,24.57
2022-08-10T10:32:01.573Z,24.53
2022-08-10T10:34:16.540Z,24.11
2022-08-10T10:36:20.485Z,24.29
2022-08-10T10:38:26.676Z,24.43
2022-08-10T10:40:35.347Z,24.85
2022-08-10T10:43:03.351Z,25.41
2022-08-10T10:45:20.092Z,25.64
2022-08-10T10:47:30.113Z,24.68
2022-08-10T10:50:02.362Z,24.40
2022-08-10T10:52:49.956Z,24.37
2022-08-10T10:55:16.361Z,23.75
2022-08-10T10:58:00.046Z,23.39
2022-08-10T11:00:05.021Z,22.85
2022-08-10T11:02:14.451Z,22.83
2022-08-10T11:04:35.471Z,23.13
2022-08-10T11:06:46.139Z,23.81
2022-08-10T11:08:56.060Z,24.17
2022-08-10T11:11:20.424Z,24.23
2022-08-10T11:14:26.526Z,23.32
2022-08-10T11:16:45.548Z,23.05
2022-08-10T11:19:07.783Z,22.93
2022-08-10T11:21:24.251Z,23.03
2022-08-10T11:23:34.906Z,23.47
2022-08-10T11:25:41.692Z,23.46
2022-08-10T11:28:11.600Z,24.23
2022-08-10T11:30:17.536Z,24.68
2022-08-10T11:32:37.741Z,25.17
2022-08-10T11:35:11.554Z,25.09
2022-08-10T11:38:31.880Z,25.32
2022-08-10T11:40:23.842Z,25.54
2022-08-10T11:42:37.032Z,25.80
2022-08-10T11:44:51.290Z,25.42
2022-08-10T11:47:04.883Z,25.36
2022-08-10T11:49:13.392Z,24.88
2022-08-10T11:51:38.512Z,24.54
2022-08-10T11:54:10.538Z,23.52
2022-08-10T11:56:24.174Z,23.26
2022-08-10T11:58:32.015Z,23.53
2022-08-10T12:00:38.325Z,23.07
2022-08-10T12:03:03.519Z,23.17
2022-08-10T12:05:15.661Z,22.51
2022-08-10T12:10:03.727Z,22.80
2022-08-10T12:10:11.450Z,23.30
2022-08-10T12:12:06.633Z,23.79
2022-08-10T12:14:37.354Z,23.82
2022-08-10T12:16:42.716Z,24.24
2022-08-10T12:18:49.205Z,24.68
2022-08-10T12:20:57.685Z,25.01
2022-08-10T12:23:08.351Z,24.76
2022-08-10T12:25:54.832Z,25.14
2022-08-10T12:27:49.383Z,25.59
2022-08-10T12:29:59.463Z,25.10
2022-08-10T12:32:12.170Z,25.45
2022-08-10T12:34:25.128Z,25.96
2022-08-10T12:36:38.017Z,25.87
2022-08-10T12:38:49.573Z,26.00
2022-08-10T12:41:09.922Z,25.93
2022-08-10T12:44:04.373Z,26.26
2022-08-10T12:46:01.896Z,25.78
2022-08-10T12:48:25.186Z,25.38
2022-08-10T12:50:42.217Z,25.03
2022-08-10T12:54:01.010Z,24.24
2022-08-10T12:56:04.526Z,23.97
2022-08-10T12:58:58.284Z,23.93
2022-08-10T13:00:33.160Z,23.77
2022-08-10T13:02:39.051Z,23.98
2022-08-10T13:04:43.220Z,23.70
2022-08-10T13:06:48.959Z,23.80
2022-08-10T13:08:53.392Z,23.85
2022-08-10T13:11:03.339Z,23.93
2022-08-10T13:13:05.506Z,24.01
2022-08-10T13:15:44.563Z,24.52
2022-08-10T13:17:42.790Z,24.79
2022-08-10T13:19:56.352Z,24.80
2022-08-10T13:22:01.489Z,25.19
2022-08-10T13:24:12.564Z,25.08
2022-08-10T13:26:19.464Z,25.36
2022-08-10T13:28:37.424Z,25.39
2022-08-10T13:30:43.177Z,25.71
2022-08-10T13:32:53.610Z,25.90
2022-08-10T13:35:01.337Z,25.71
2022-08-10T13:37:08.486Z,25.57
2022-08-10T13:39:12.509Z,25.61
2022-08-10T13:41:16.150Z,25.44
2022-08-10T13:43:20.295Z,25.33
2022-08-10T13:45:25.207Z,25.15
2022-08-10T13:47:42.414Z,25.32
2022-08-10T13:50:08.004Z,24.81
2022-08-10T13:52:19.462Z,24.65
2022-08-10T13:54:24.663Z,24.45
2022-08-10T13:56:30.181Z,24.45
2022-08-10T13:58:38.666Z,24.68
2022-08-10T14:00:41.692Z,24.87
2022-08-10T14:03:00.997Z,25.20
2022-08-10T14:05:04.997Z,24.90
2022-08-10T14:07:06.972Z,25.10
2022-08-10T14:09:12.921Z,25.22
2022-08-10T14:11:18.437Z,25.39
2022-08-10T14:13:22.071Z,24.57
2022-08-10T14:15:30.309Z,24.82
2022-08-10T14:17:34.247Z,24.62
2022-08-10T14:19:43.603Z,24.80
2022-08-10T14:21:46.082Z,25.15
2022-08-10T14:23:52.681Z,25.05
2022-08-10T14:26:06.601Z,24.93
2022-08-10T14:28:11.298Z,24.83
2022-08-10T14:30:17.345Z,24.82
2022-08-10T14:32:23.628Z,25.19
2022-08-10T14:34:59.231Z,25.60
2022-08-10T14:37:05.997Z,25.60
2022-08-10T14:39:12.002Z,25.49
2022-08-10T14:42:01.085Z,25.47
2022-08-10T14:43:42.644Z,25.74
2022-08-10T14:45:47.657Z,25.76
2022-08-10T14:47:59.511Z,25.94
2022-08-10T14:50:05.161Z,25.82
2022-08-10T14:52:08.625Z,26.04
2022-08-10T14:54:12.481Z,26.16
2022-08-10T14:56:24.032Z,26.14
2022-08-10T14:58:28.927Z,25.88
2022-08-10T15:00:42.529Z,26.01
2022-08-10T15:02:52.971Z,25.68
2022-08-10T15:04:58.457Z,25.38
2022-08-10T15:07:23.689Z,25.86
2022-08-10T15:09:31.182Z,25.84
2022-08-10T15:12:14.355Z,25.76
2022-08-10T15:14:42.844Z,26.06
2022-08-10T15:16:41.942Z,25.58
2022-08-10T15:18:58.566Z,25.30
2022-08-10T15:21:03.598Z,25.54
2022-08-10T15:23:31.265Z,25.87
2022-08-10T15:25:56.448Z,26.05
2022-08-10T15:28:10.588Z,25.82
2022-08-10T15:30:14.166Z,25.69
2022-08-10T15:32:16.523Z,25.69
2022-08-10T15:34:18.746Z,25.94
2022-08-10T15:36:22.544Z,25.85
2022-08-10T15:38:34.846Z,25.84
2022-08-10T15:40:50.817Z,25.67
2022-08-10T15:42:59.609Z,25.86
2022-08-10T15:45:02.128Z,25.47
2022-08-10T15:47:08.262Z,25.85
2022-08-10T15:49:15.158Z,25.52
2022-08-10T15:51:28.268Z,25.64
2022-08-10T15:53:49.766Z,26.06
2022-08-10T15:55:54.864Z,25.64
2022-08-10T15:58:04.583Z,25.55
2022-08-10T16:00:10.303Z,25.57
2022-08-10T16:02:24.738Z,25.52
2022-08-10T16:04:32.438Z,25.75
2022-08-10T16:06:41.776Z,25.33
2022-08-10T16:08:56.356Z,25.43
2022-08-10T16:11:16.496Z,25.31
2022-08-10T16:13:59.981Z,25.06
2022-08-10T16:15:51.088Z,25.06
2022-08-10T16:18:11.491Z,25.08
2022-08-10T16:20:15.282Z,25.04
2022-08-10T16:22:35.346Z,25.17
2022-08-10T16:24:40.889Z,25.22
2022-08-10T16:26:46.426Z,24.99
2022-08-10T16:28:58.684Z,25.12
2022-08-10T16:31:04.263Z,25.05
2022-08-10T16:33:08.946Z,24.88
2022-08-10T16:35:17.455Z,24.75
2022-08-10T16:37:22.230Z,24.58
2022-08-10T16:39:58.471Z,24.47
2022-08-10T16:42:06.024Z,24.38
2022-08-10T16:44:11.217Z,24.29
2022-08-10T16:46:16.953Z,24.29
2022-08-10T16:48:33.760Z,24.38
2022-08-10T16:50:55.061Z,24.39
2022-08-10T16:52:58.552Z,24.40
2022-08-10T16:55:17.182Z,24.41
2022-08-10T16:57:29.746Z,24.32
2022-08-10T16:59:37.026Z,24.48
2022-08-10T17:01:42.202Z,24.62
2022-08-10T17:04:07.570Z,24.69
2022-08-10T17:06:16.282Z,24.54
2022-08-10T17:08:20.644Z,24.71
2022-08-10T17:10:23.150Z,24.71
2022-08-10T17:12:30.242Z,24.87
2022-08-10T17:14:32.383Z,24.83
2022-08-10T17:16:37.222Z,24.89
2022-08-10T17:18:43.544Z,24.87
2022-08-10T17:20:51.097Z,24.82
2022-08-10T17:22:57.318Z,24.86
2022-08-10T17:25:22.526Z,24.74
2022-08-10T17:28:05.448Z,24.38
2022-08-10T17:29:58.027Z,24.30
2022-08-10T17:32:14.804Z,24.12
2022-08-10T17:34:29.174Z,23.90
2022-08-10T17:36:35.641Z,23.83
2022-08-10T17:38:38.154Z,23.80
2022-08-10T17:40:50.711Z,23.80
2022-08-10T17:42:52.945Z,23.89
2022-08-10T17:44:56.954Z,23.81
2022-08-10T17:47:00.968Z,23.87
2022-08-10T17:49:16.121Z,23.84
2022-08-10T17:51:18.563Z,23.86
2022-08-10T17:53:51.463Z,23.83
2022-08-10T17:55:59.887Z,23.75
2022-08-10T17:58:12.395Z,23.75
2022-08-10T18:00:14.787Z,23.67
2022-08-10T18:02:26.755Z,23.65
2022-08-10T18:04:35.576Z,23.61
2022-08-10T18:06:45.531Z,23.51
2022-08-10T18:08:52.639Z,23.42
2022-08-10T18:10:58.358Z,23.23
2022-08-10T18:13:01.393Z,23.14
2022-08-10T18:15:13.476Z,23.02
2022-08-10T18:17:22.075Z,22.91
2022-08-10T18:19:26.442Z,22.87
2022-08-10T18:21:30.631Z,22.75
2022-08-10T18:23:35.650Z,22.70
2022-08-10T18:25:40.838Z,22.59
2022-08-10T18:28:00.725Z,22.49
2022-08-10T18:30:07.131Z,22.14
2022-08-10T18:32:12.656Z,21.89
2022-08-10T18:34:19.945Z,21.74
2022-08-10T18:36:23.851Z,21.53
2022-08-10T18:38:27.136Z,21.35
2022-08-10T18:40:36.123Z,21.09
2022-08-10T18:42:44.382Z,20.68
2022-08-10T18:44:57.262Z,20.32
2022-08-10T18:47:26.021Z,20.35
2022-08-10T18:49:40.541Z,20.33
2022-08-10T18:51:48.383Z,20.01
2022-08-10T18:53:58.712Z,19.99
2022-08-10T18:56:37.682Z,19.93
2022-08-10T18:59:05.706Z,19.82
2022-08-10T19:01:42.742Z,19.55
2022-08-10T19:04:06.346Z,19.45
2022-08-10T19:06:37.085Z,19.27
2022-08-10T19:09:01.871Z,19.13
2022-08-10T19:11:14.749Z,19.11
2022-08-10T19:13:32.491Z,19.02
2022-08-10T19:15:56.356Z,18.94
2022-08-10T19:18:16.760Z,18.91
2022-08-10T19:20:54.128Z,18.84
2022-08-10T19:23:18.879Z,18.71
2022-08-10T19:26:42.687Z,18.59
2022-08-10T19:28:23.392Z,18.45
2022-08-10T19:30:29.439Z,18.42
2022-08-10T19:33:09.068Z,18.41
2022-08-10T19:35:29.336Z,18.23
2022-08-10T19:37:59.997Z,18.19
2022-08-10T19:40:43.454Z,18.13
2022-08-10T19:43:09.208Z,17.92
2022-08-10T19:46:01.953Z,17.90
2022-08-10T19:47:54.147Z,17.69
2022-08-10T19:50:11.295Z,17.65
2022-08-10T19:52:42.349Z,17.54
2022-08-10T19:55:01.079Z,17.54
2022-08-10T19:57:13.601Z,17.58
2022-08-10T20:00:16.758Z,17.61
2022-08-10T20:01:59.634Z,17.46
2022-08-10T20:04:20.081Z,17.31
2022-08-10T20:06:30.596Z,17.38
2022-08-10T20:08:41.843Z,17.28
2022-08-10T20:10:57.036Z,17.23
2022-08-10T20:13:37.452Z,17.23
2022-08-10T20:15:45.509Z,17.07
2022-08-10T20:18:00.827Z,17.08
2022-08-10T20:20:17.288Z,16.96
2022-08-10T20:22:29.415Z,16.82
2022-08-10T20:24:55.458Z,16.80
2022-08-10T20:27:18.096Z,16.67
2022-08-10T20:29:58.349Z,16.80
2022-08-10T20:32:12.810Z,16.64
2022-08-10T20:34:22.255Z,16.68
2022-08-10T20:36:30.036Z,16.35
2022-08-10T20:39:05.096Z,16.24
2022-08-10T20:41:28.581Z,16.06
2022-08-10T20:43:52.325Z,16.09
2022-08-10T20:46:08.961Z,16.34
2022-08-10T20:48:20.819Z,16.35
2022-08-10T20:50:37.760Z,16.52
2022-08-10T20:52:41.097Z,16.61
2022-08-10T20:54:49.930Z,16.55
2022-08-10T20:56:57.370Z,16.53
2022-08-10T20:59:08.862Z,16.59
2022-08-10T21:01:17.307Z,16.63
2022-08-10T21:03:32.921Z,16.52
2022-08-10T21:05:40.919Z,16.45
2022-08-10T21:08:20.086Z,16.25
2022-08-10T21:10:41.168Z,15.99
2022-08-10T21:13:05.468Z,15.89
2022-08-10T21:15:27.351Z,15.81
2022-08-10T21:17:58.359Z,15.75
2022-08-10T21:20:28.824Z,15.68
2022-08-10T21:22:53.775Z,15.68
2022-08-10T21:25:00.646Z,15.69
2022-08-10T21:27:22.870Z,15.73
2022-08-10T21:30:04.379Z,15.73
2022-08-10T21:32:24.561Z,15.72
2022-08-10T21:35:10.961Z,15.69
2022-08-10T21:37:40.370Z,15.67
2022-08-10T21:39:57.590Z,15.77
2022-08-10T21:42:37.766Z,15.88
2022-08-10T21:45:08.205Z,16.15
2022-08-10T21:48:07.276Z,16.46
2022-08-10T21:50:17.684Z,16.64
2022-08-10T21:52:53.635Z,16.90
2022-08-10T21:55:09.762Z,17.12
2022-08-10T21:57:19.482Z,17.35
2022-08-10T21:59:44.429Z,17.57
2022-08-10T22:04:20.578Z,17.90
2022-08-10T22:06:24.956Z,17.99
2022-08-10T22:09:02.477Z,18.06
2022-08-10T22:11:09.761Z,18.11
2022-08-10T22:13:17.354Z,18.19
2022-08-10T22:15:23.939Z,18.30
2022-08-10T22:18:03.844Z,18.36
2022-08-10T22:20:10.967Z,18.31
2022-08-10T22:22:26.842Z,18.32
2022-08-10T22:24:43.882Z,18.40
2022-08-10T22:27:00.764Z,18.41
2022-08-10T22:29:11.352Z,18.40
2022-08-10T22:33:57.448Z,18.45
2022-08-10T22:36:17.206Z,18.50
2022-08-10T22:39:10.440Z,18.40
2022-08-10T22:41:42.260Z,18.29
2022-08-10T22:43:44.186Z,18.29
2022-08-10T22:45:51.981Z,18.32
2022-08-10T22:48:02.398Z,18.41
2022-08-10T22:50:07.549Z,18.28
2022-08-10T22:52:16.976Z,18.30
2022-08-10T22:54:31.886Z,18.25
2022-08-10T22:56:41.091Z,18.22
2022-08-10T22:58:44.236Z,18.16
2022-08-10T23:01:09.444Z,17.88
2022-08-10T23:03:24.146Z,17.82
2022-08-10T23:05:36.898Z,17.57
2022-08-10T23:07:51.448Z,17.49
2022-08-10T23:10:02.981Z,17.32
2022-08-10T23:12:17.031Z,17.00
2022-08-10T23:14:19.109Z,16.84
2022-08-10T23:16:24.150Z,16.71
2022-08-10T23:18:36.843Z,16.59
2022-08-10T23:20:41.156Z,16.44
2022-08-10T23:22:47.568Z,16.38
2022-08-10T23:24:55.353Z,16.33
2022-08-10T23:26:59.372Z,16.32
2022-08-10T23:29:15.582Z,16.15
2022-08-10T23:32:00.977Z,16.18
2022-08-10T23:33:42.281Z,15.96
2022-08-10T23:36:31.881Z,15.98
2022-08-10T23:38:22.015Z,15.89
2022-08-10T23:40:25.865Z,15.76
2022-08-10T23:42:37.351Z,15.70
2022-08-10T23:45:01.537Z,15.58
2022-08-10T23:47:04.801Z,15.48
2022-08-10T23:49:10.678Z,15.50
2022-08-10T23:51:16.120Z,15.38
2022-08-10T23:53:30.266Z,15.33
2022-08-10T23:55:48.874Z,15.34
2022-08-10T23:57:58.106Z,15.27
